Time;durP1;ratioP1;P1;durP2;ratioP2;P2;SDS_P1;SDS_P2;PMS_P1;PMS_P2;Temp;Humidity;BMP_temperature;BMP_pressure;BME280_temperature;BME280_humidity;BME280_pressure;Samples;Min_cycle;Max_cycle;Signal;HPM_P1;HPM_P2
2022/05/10 00:02:31;;;;;;;2.70;2.50;;;;;;;16.33;52.14;97500.94;4858922;29;20172;-94
2022/05/10 00:05:17;;;;;;;3.23;2.93;;;;;;;16.18;52.82;97481.56;4859000;29;20209;-95
2022/05/10 00:08:10;;;;;;;2.70;2.50;;;;;;;16.32;53.33;97538.91;4860187;29;20172;-95
2022/05/10 00:10:56;;;;;;;2.93;2.40;;;;;;;16.25;52.58;97517.44;4859959;29;20196;-95
2022/05/10 00:13:39;;;;;;;2.77;2.43;;;;;;;17.91;51.60;97785.53;4859881;29;20195;-94
2022/05/10 00:16:20;;;;;;;2.77;2.57;;;;;;;15.54;52.67;97324.66;4860282;29;20195;-94
2022/05/10 00:19:04;;;;;;;2.70;2.50;;;;;;;17.58;52.88;97687.34;4857636;29;20172;-95
2022/05/10 00:21:55;;;;;;;2.93;2.73;;;;;;;16.24;52.73;97456.50;4861018;29;20208;-95
2022/05/10 00:24:41;;;;;;;2.80;2.60;;;;;;;15.50;52.61;97348.06;4843740;29;20167;-94
2022/05/10 00:27:22;;;;;;;2.70;2.50;;;;;;;14.74;52.72;97162.81;4846316;29;20171;-95
2022/05/10 00:30:04;;;;;;;2.60;2.40;;;;;;;16.30;53.36;97523.63;4857727;29;20187;-95
2022/05/10 00:32:54;;;;;;;2.50;2.30;;;;;;;15.61;52.34;97357.06;4843434;29;20188;-95
2022/05/10 00:35:34;;;;;;;2.60;2.40;;;;;;;16.29;52.65;97430.56;4839502;29;20292;-96
2022/05/10 00:38:18;;;;;;;2.60;2.40;;;;;;;14.83;52.85;97250.13;4853260;29;20196;-95
2022/05/10 00:41:22;;;;;;;2.80;2.60;;;;;;;16.01;52.70;97384.44;4840602;29;20164;-95
2022/05/10 00:44:34;;;;;;;2.63;2.43;;;;;;;14.82;52.63;97187.69;4867298;29;20227;-94
2022/05/10 00:47:36;;;;;;;2.83;2.57;;;;;;;16.18;52.66;97424.16;4866881;29;20203;-95
2022/05/10 00:50:52;;;;;;;3.23;2.93;;;;;;;14.25;52.62;97111.44;4853787;29;20266;-94
2022/05/10 00:53:57;;;;;;;2.70;2.50;;;;;;;19.81;52.96;98042.31;4840165;29;20181;-94
2022/05/10 00:56:45;;;;;;;2.80;2.60;;;;;;;17.97;53.16;97727.34;4848138;29;20177;-96
2022/05/10 00:59:50;;;;;;;3.10;2.80;;;;;;;19.59;52.92;98028.53;4822239;29;20162;-94
2022/05/10 01:03:10;;;;;;;2.80;2.60;;;;;;;19.82;53.05;98040.63;4837387;29;20169;-95
2022/05/10 01:06:34;;;;;;;2.90;2.70;;;;;;;19.77;52.82;98037.88;4844384;29;20177;-94
2022/05/10 01:09:27;;;;;;;2.83;2.63;;;;;;;19.81;52.89;98044.84;4857632;29;20173;-95
2022/05/10 01:12:29;;;;;;;3.00;2.80;;;;;;;13.32;52.62;96933.19;4858124;29;20185;-94
2022/05/10 01:15:21;;;;;;;2.43;2.33;;;;;;;14.89;52.72;97209.94;4872043;29;20235;-95
2022/05/10 01:18:04;;;;;;;2.70;2.50;;;;;;;16.00;52.95;97397.03;4839902;29;20235;-94
2022/05/10 01:20:45;;;;;;;2.90;2.70;;;;;;;14.84;52.82;97202.94;4780629;30;20184;-95
2022/05/10 01:24:03;;;;;;;2.50;2.30;;;;;;;19.78;52.88;98041.31;4779579;30;20179;-95
2022/05/10 01:27:23;;;;;;;2.40;2.20;;;;;;;19.78;53.04;98038.75;4787876;30;20187;-95
2022/05/10 01:30:22;;;;;;;2.67;2.47;;;;;;;17.76;53.03;97690.75;4792752;30;20203;-94
2022/05/10 01:36:21;;;;;;;2.70;2.50;;;;;;;19.77;52.58;98032.78;4813996;29;20174;-94
2022/05/10 01:39:23;;;;;;;2.83;2.63;;;;;;;19.78;53.09;98038.75;4828878;29;20166;-96
2022/05/10 01:42:14;;;;;;;2.60;2.40;;;;;;;16.42;53.06;97534.38;4815959;29;20166;-94
2022/05/10 01:45:39;;;;;;;2.77;2.57;;;;;;;19.79;53.10;98043.06;4816646;29;20196;-94
2022/05/10 01:48:32;;;;;;;2.97;2.70;;;;;;;15.08;52.89;97253.13;4828468;29;20199;-94
2022/05/10 01:51:18;;;;;;;2.80;2.60;;;;;;;15.85;52.89;97386.13;4832621;29;20192;-95
2022/05/10 01:54:01;;;;;;;2.60;2.40;;;;;;;15.15;52.84;97279.56;4863895;29;20264;-95
2022/05/10 01:56:42;;;;;;;2.80;2.60;;;;;;;15.20;52.81;97256.25;4887791;29;20171;-94
2022/05/10 01:59:32;;;;;;;2.30;2.10;;;;;;;15.06;52.55;97247.09;4855843;29;20167;-95
2022/05/10 02:02:27;;;;;;;2.10;2.00;;;;;;;15.81;52.73;97331.91;4867046;29;20175;-95
2022/05/10 02:05:11;;;;;;;2.53;2.37;;;;;;;16.26;53.01;97443.09;4854404;29;20414;-96
2022/05/10 02:07:53;;;;;;;2.57;2.37;;;;;;;19.81;53.02;98034.66;4873840;29;20187;-94
2022/05/10 02:10:38;;;;;;;2.67;2.47;;;;;;;14.09;53.00;97103.81;4860157;29;20200;-94
2022/05/10 02:13:14;;;;;;;2.53;2.33;;;;;;;16.35;52.85;97448.63;4843622;29;20180;-94
2022/05/10 02:16:28;;;;;;;2.30;2.20;;;;;;;17.89;52.60;97690.50;4860923;29;20171;-95
2022/05/10 02:19:25;;;;;;;2.50;2.30;;;;;;;19.84;52.85;98032.22;4843103;29;20175;-95
2022/05/10 02:22:12;;;;;;;2.40;2.20;;;;;;;17.22;52.92;97578.91;4873955;29;20197;-94
2022/05/10 02:24:58;;;;;;;2.80;2.60;;;;;;;16.33;52.77;97419.81;4873887;29;20171;-94
2022/05/10 02:27:59;;;;;;;2.80;2.60;;;;;;;12.69;52.82;96798.69;4860946;29;20172;-95
2022/05/10 02:30:41;;;;;;;2.40;2.20;;;;;;;15.47;53.09;97261.81;4874608;29;20190;-94
2022/05/10 02:33:25;;;;;;;2.83;2.63;;;;;;;18.83;52.91;97886.59;4847117;29;20176;-94
2022/05/10 02:36:06;;;;;;;2.90;2.70;;;;;;;15.63;52.64;97303.16;4852372;29;20184;-95
2022/05/10 02:38:47;;;;;;;2.77;2.43;;;;;;;16.76;52.77;97480.22;4873914;29;20231;-94
2022/05/10 02:41:32;;;;;;;2.70;2.50;;;;;;;16.22;52.46;97393.06;4846518;29;20183;-94
2022/05/10 02:44:12;;;;;;;2.67;2.47;;;;;;;16.44;52.47;97450.78;4869531;29;20176;-94
2022/05/10 02:46:57;;;;;;;2.60;2.40;;;;;;;15.71;52.89;97298.47;4873530;29;20168;-95
2022/05/10 02:49:39;;;;;;;2.30;2.20;;;;;;;16.49;53.11;97438.31;4860731;29;20183;-94
2022/05/10 02:52:20;;;;;;;2.60;2.40;;;;;;;15.61;52.31;97281.09;4859666;29;20164;-96
2022/05/10 02:55:19;;;;;;;2.70;2.50;;;;;;;16.39;52.46;97414.16;4859845;29;20164;-95
2022/05/10 02:58:04;;;;;;;2.70;2.50;;;;;;;13.99;52.74;97041.00;4872557;29;20168;-96
2022/05/10 03:00:45;;;;;;;2.63;2.43;;;;;;;18.12;52.65;97753.47;4847741;29;20183;-94
2022/05/10 03:03:26;;;;;;;2.57;2.40;;;;;;;14.28;52.46;97046.78;4847181;29;20175;-95
2022/05/10 03:06:07;;;;;;;2.60;2.40;;;;;;;16.47;52.44;97463.59;4846908;29;20164;-95
2022/05/10 03:08:47;;;;;;;2.90;2.70;;;;;;;18.45;52.56;97766.03;4859093;29;20247;-95
2022/05/10 03:11:31;;;;;;;2.80;2.60;;;;;;;19.35;52.50;97966.25;4848010;29;20176;-94
2022/05/10 03:14:15;;;;;;;2.60;2.40;;;;;;;15.94;52.73;97326.66;4860203;29;20176;-95
2022/05/10 03:16:56;;;;;;;2.77;2.57;;;;;;;17.19;53.07;97623.59;4859782;29;20196;-95
2022/05/10 03:19:37;;;;;;;2.57;2.37;;;;;;;19.93;52.52;98044.53;4871609;29;20163;-95
2022/05/10 03:22:18;;;;;;;2.53;2.40;;;;;;;16.58;52.51;97434.53;4863918;29;20208;-95
2022/05/10 03:24:58;;;;;;;2.67;2.47;;;;;;;14.82;52.63;97182.63;4859994;29;20191;-95
2022/05/10 03:27:39;;;;;;;2.30;2.20;;;;;;;18.93;52.18;97882.78;4841497;29;20164;-94
2022/05/10 03:30:10;;;;;;;2.83;2.63;;;;;;;16.27;52.43;97368.81;4838867;29;20214;-95
2022/05/10 03:32:52;;;;;;;2.70;2.50;;;;;;;16.58;52.56;97462.44;4847692;29;20177;-94
2022/05/10 03:35:36;;;;;;;2.87;2.67;;;;;;;15.54;52.63;97241.06;4867823;29;20188;-94
2022/05/10 03:38:16;;;;;;;2.80;2.60;;;;;;;16.54;52.53;97452.06;4858770;29;20176;-95
2022/05/10 03:40:57;;;;;;;2.67;2.47;;;;;;;14.41;51.94;97045.69;4862085;29;20203;-94
2022/05/10 03:43:37;;;;;;;2.80;2.60;;;;;;;16.95;52.58;97521.75;4839557;29;20258;-94
2022/05/10 03:46:20;;;;;;;2.67;2.47;;;;;;;15.92;52.33;97307.97;4866667;29;20178;-95
2022/05/10 03:49:01;;;;;;;2.90;2.70;;;;;;;16.52;52.47;97431.69;4864404;29;20156;-95
2022/05/10 03:51:41;;;;;;;2.80;2.60;;;;;;;16.10;53.03;97394.13;4854989;29;20172;-95
2022/05/10 03:54:08;;;;;;;3.17;2.20;;;;;;;15.21;52.36;97214.06;4853138;29;20194;-93
2022/05/10 03:56:35;;;;;;;2.40;2.20;;;;;;;16.81;52.03;97515.16;4873681;29;20184;-92
2022/05/10 03:59:02;;;;;;;2.80;2.60;;;;;;;16.65;53.42;97471.22;4852335;29;20193;-92
2022/05/10 04:01:29;;;;;;;2.70;2.50;;;;;;;15.25;52.16;97210.91;4844486;29;20256;-93
2022/05/10 04:04:01;;;;;;;2.83;2.63;;;;;;;16.45;52.28;97442.38;4844649;29;20203;-94
2022/05/10 04:06:29;;;;;;;2.60;2.40;;;;;;;15.25;52.30;97231.16;4854944;29;20216;-93
2022/05/10 04:08:56;;;;;;;2.80;2.60;;;;;;;16.15;52.32;97370.75;4837421;29;20191;-93
2022/05/10 04:11:22;;;;;;;2.70;2.50;;;;;;;16.47;52.15;97402.72;4843400;29;20296;-92
2022/05/10 04:13:49;;;;;;;2.70;2.50;;;;;;;17.33;52.36;97580.28;4862895;29;20856;-92
2022/05/10 04:16:16;;;;;;;2.67;2.47;;;;;;;17.23;52.44;97534.91;4837350;29;20226;-93
2022/05/10 04:18:43;;;;;;;2.50;2.30;;;;;;;14.35;52.21;97076.59;4845054;29;20187;-95
2022/05/10 04:21:11;;;;;;;2.80;2.60;;;;;;;14.28;52.34;97018.97;4856082;29;20198;-94
2022/05/10 04:23:49;;;;;;;2.70;2.50;;;;;;;19.07;52.21;97897.03;4845103;29;21318;-93
2022/05/10 04:26:16;;;;;;;2.50;2.30;;;;;;;17.85;52.14;97690.28;4859571;29;20196;-94
2022/05/10 04:28:54;;;;;;;2.73;2.53;;;;;;;15.25;52.27;97210.91;4861341;29;20198;-94
2022/05/10 04:31:33;;;;;;;2.53;2.40;;;;;;;17.15;52.32;97559.09;4841040;29;20219;-95
2022/05/10 04:34:02;;;;;;;2.77;2.57;;;;;;;15.98;52.22;97328.53;4850851;29;20196;-94
2022/05/10 04:36:30;;;;;;;2.57;2.37;;;;;;;18.61;52.04;97779.50;4846950;29;20208;-94
2022/05/10 04:38:57;;;;;;;2.70;2.50;;;;;;;16.28;52.17;97374.72;4846635;29;20184;-94
2022/05/10 04:41:28;;;;;;;2.60;2.40;;;;;;;16.23;52.14;97412.53;4853533;29;20202;-94
2022/05/10 04:43:59;;;;;;;2.67;2.47;;;;;;;15.98;52.19;97336.13;4852271;29;20226;-94
2022/05/10 04:46:30;;;;;;;2.80;2.60;;;;;;;15.15;52.13;97171.63;4863835;29;20287;-94
2022/05/10 04:48:58;;;;;;;2.70;2.50;;;;;;;15.16;52.30;97169.97;4836316;29;20190;-93
2022/05/10 04:51:24;;;;;;;2.60;2.40;;;;;;;18.42;52.07;97754.03;4837294;29;20219;-93
2022/05/10 04:53:51;;;;;;;2.87;2.67;;;;;;;15.99;52.43;97315.03;4845197;29;20217;-93
2022/05/10 04:56:18;;;;;;;3.20;3.00;;;;;;;16.85;52.01;97471.38;4841265;29;20204;-93
2022/05/10 04:58:44;;;;;;;3.00;2.80;;;;;;;16.54;51.76;97421.63;4846102;29;20187;-94
2022/05/10 05:01:13;;;;;;;2.70;2.50;;;;;;;15.22;51.72;97229.34;4851028;29;20194;-94
2022/05/10 05:03:45;;;;;;;2.80;2.60;;;;;;;17.56;52.02;97671.16;4847796;29;20207;-93
2022/05/10 05:06:11;;;;;;;2.90;2.70;;;;;;;18.40;51.98;97773.44;4847246;29;20199;-93
2022/05/10 05:08:38;;;;;;;3.00;2.80;;;;;;;18.32;52.31;97766.25;4832425;29;20220;-93
2022/05/10 05:11:05;;;;;;;2.90;2.70;;;;;;;18.15;52.17;97715.47;4832183;29;20231;-94
2022/05/10 05:13:43;;;;;;;3.57;2.50;;;;;;;16.52;51.86;97494.28;4834887;29;20223;-93
2022/05/10 05:16:10;;;;;;;2.80;2.60;;;;;;;17.77;52.02;97640.78;4817015;29;20204;-93
2022/05/10 05:18:37;;;;;;;2.90;2.70;;;;;;;17.96;52.30;97712.88;4862949;29;20196;-93
2022/05/10 05:21:03;;;;;;;2.80;2.60;;;;;;;17.90;52.22;97701.56;4817062;29;20433;-94
2022/05/10 05:23:30;;;;;;;2.80;2.60;;;;;;;18.94;52.37;97875.22;4816813;29;20216;-94
2022/05/10 05:25:57;;;;;;;2.70;2.50;;;;;;;17.78;52.14;97693.38;4816957;29;20200;-95
2022/05/10 05:28:24;;;;;;;3.07;2.87;;;;;;;17.25;52.25;97581.56;4820457;29;20188;-94
2022/05/10 05:30:50;;;;;;;2.83;2.63;;;;;;;16.04;51.93;97402.31;4818514;29;20219;-94
2022/05/10 05:33:17;;;;;;;2.90;2.70;;;;;;;14.71;52.42;97168.56;4875115;29;20211;-93
2022/05/10 05:35:44;;;;;;;2.90;2.70;;;;;;;17.93;52.40;97717.84;4852421;29;20233;-95
2022/05/10 06:07:51;;;;;;;3.10;2.80;;;;;;;17.16;52.34;97559.94;5182757;23;20222;-94
2022/05/10 06:10:30;;;;;;;3.20;2.80;;;;;;;15.92;52.31;97405.91;4899005;24;20220;-93
2022/05/10 06:13:01;;;;;;;2.87;2.67;;;;;;;15.00;52.27;97190.25;4833023;29;20216;-94
2022/05/10 06:15:28;;;;;;;3.10;2.90;;;;;;;16.38;52.31;97474.13;4854603;29;20188;-94
2022/05/10 06:17:56;;;;;;;3.20;3.00;;;;;;;17.75;52.59;97694.09;4869375;29;20220;-94
2022/05/10 06:20:24;;;;;;;3.23;3.03;;;;;;;16.30;53.02;97434.88;4869387;29;20276;-94
2022/05/10 06:23:04;;;;;;;3.23;3.03;;;;;;;16.49;52.51;97479.75;4856793;29;20222;-95
2022/05/10 06:25:31;;;;;;;3.00;2.80;;;;;;;17.57;52.62;97700.88;4854151;29;20217;-94
2022/05/10 06:27:58;;;;;;;3.00;2.80;;;;;;;15.88;52.50;97420.13;4860420;29;20181;-94
2022/05/10 06:30:25;;;;;;;3.40;3.10;;;;;;;15.60;52.84;97345.22;4883381;24;20220;-95
2022/05/10 06:32:58;;;;;;;3.47;3.23;;;;;;;15.39;52.34;97276.63;4819762;29;20255;-94
2022/05/10 06:35:25;;;;;;;3.47;3.20;;;;;;;13.87;53.15;97005.03;4850435;29;20189;-95
2022/05/10 06:40:37;;;;;;;3.17;2.93;;;;;;;17.61;52.39;97663.75;4866460;29;20204;-94
2022/05/10 06:43:18;;;;;;;3.17;2.97;;;;;;;17.79;52.45;97708.69;4851297;29;20211;-95
2022/05/10 06:45:59;;;;;;;3.00;2.80;;;;;;;16.67;53.37;97549.13;4866248;29;20200;-96
2022/05/10 06:48:39;;;;;;;3.30;3.00;;;;;;;16.37;53.06;97456.31;4852834;29;20714;-95
2022/05/10 06:51:19;;;;;;;3.50;3.20;;;;;;;16.63;52.93;97529.50;4852921;29;20227;-95
2022/05/10 06:53:58;;;;;;;3.30;3.10;;;;;;;15.78;52.61;97344.41;4839303;29;20244;-94
2022/05/10 06:56:24;;;;;;;3.10;2.90;;;;;;;15.09;52.72;97204.22;4836287;29;20205;-94
2022/05/10 06:58:52;;;;;;;3.20;2.90;;;;;;;16.41;52.57;97481.88;4851563;29;20464;-96
2022/05/10 07:01:34;;;;;;;3.50;3.20;;;;;;;14.56;52.90;97157.69;4840109;29;20212;-95
2022/05/10 07:04:14;;;;;;;3.47;3.17;;;;;;;15.11;52.40;97272.63;4853438;29;20238;-95
2022/05/10 07:06:55;;;;;;;3.30;3.00;;;;;;;16.19;52.34;97427.53;4852555;29;20188;-95
2022/05/10 07:09:21;;;;;;;3.40;3.10;;;;;;;15.18;52.77;97216.44;4851089;29;20208;-94
2022/05/10 07:11:48;;;;;;;4.13;3.03;;;;;;;18.92;51.91;97911.63;4836252;29;20212;-94
2022/05/10 07:14:29;;;;;;;3.40;3.10;;;;;;;15.94;52.61;97382.41;4852667;29;20208;-93
2022/05/10 07:17:07;;;;;;;3.20;3.00;;;;;;;18.02;52.60;97761.50;4839285;29;20191;-95
2022/05/10 07:19:48;;;;;;;3.30;3.10;;;;;;;14.68;52.56;97154.13;4913834;23;20226;-94
2022/05/10 07:22:15;;;;;;;3.27;2.97;;;;;;;15.37;52.36;97239.34;4833396;29;20312;-93
2022/05/10 07:24:49;;;;;;;3.20;3.00;;;;;;;15.25;52.60;97248.88;4819964;29;20200;-95
2022/05/10 07:40:59;;;;;;;3.37;2.90;;;;;;;18.65;52.57;97845.00;4998689;23;20235;-92
2022/05/10 07:43:27;;;;;;;3.23;3.03;;;;;;;15.80;52.65;97365.66;4876335;29;20229;-94
2022/05/10 07:45:54;;;;;;;3.20;2.70;;;;;;;16.44;52.56;97477.00;4834682;29;20221;-94
2022/05/10 07:48:22;;;;;;;3.53;3.23;;;;;;;16.24;52.71;97451.44;4857851;29;20194;-94
2022/05/10 07:50:51;;;;;;;9.00;3.60;;;;;;;16.01;52.76;97386.97;4837650;29;20324;-95
2022/05/10 07:53:32;;;;;;;3.23;2.93;;;;;;;18.46;54.00;97780.47;4859569;29;20210;-95
2022/05/10 07:55:59;;;;;;;6.70;3.40;;;;;;;18.09;52.83;97762.66;4855188;29;20179;-94
2022/05/10 07:58:26;;;;;;;5.10;3.47;;;;;;;16.00;53.50;97353.94;4873526;24;20247;-93
2022/05/10 08:00:56;;;;;;;7.87;3.60;;;;;;;14.79;54.24;97141.13;4867297;24;20248;-95
2022/05/10 08:03:39;;;;;;;5.87;3.20;;;;;;;14.59;53.79;97141.03;5059269;23;20234;-92
2022/05/10 08:06:20;;;;;;;11.23;4.10;;;;;;;16.33;53.41;97459.50;4864030;29;20259;-94
2022/05/10 08:09:00;;;;;;;9.37;3.40;;;;;;;17.09;53.13;97551.22;4912974;24;20237;-94
2022/05/10 08:11:39;;;;;;;4.83;3.40;;;;;;;14.75;53.37;97173.00;4882253;29;20219;-94
2022/05/10 08:14:08;;;;;;;7.10;3.40;;;;;;;19.61;53.43;97979.38;4860052;24;20299;-90
2022/05/10 08:16:34;;;;;;;5.90;3.40;;;;;;;19.77;52.93;97994.53;4860027;29;20204;-90
2022/05/10 08:19:01;;;;;;;8.33;3.43;;;;;;;19.00;52.81;97866.97;4838824;29;20207;-89
2022/05/10 08:21:28;;;;;;;18.30;2.90;;;;;;;18.90;52.87;97847.00;4853047;29;20294;-88
2022/05/10 08:23:55;;;;;;;8.03;3.10;;;;;;;19.35;52.91;97921.28;4856408;29;20239;-89
2022/05/10 08:26:22;;;;;;;9.03;3.00;;;;;;;19.75;52.97;97985.94;4842729;29;20247;-90
2022/05/10 08:28:49;;;;;;;3.30;2.53;;;;;;;19.77;53.14;97981.78;4844595;29;20201;-89
2022/05/10 08:31:23;;;;;;;13.67;2.87;;;;;;;19.80;53.00;97984.47;4832515;29;20232;-87
2022/05/10 08:33:50;;;;;;;8.73;3.10;;;;;;;19.49;53.00;97932.06;4847298;29;20232;-88
2022/05/10 08:36:16;;;;;;;5.07;3.23;;;;;;;19.84;53.22;97988.03;4848663;29;20219;-89
2022/05/10 08:38:43;;;;;;;6.30;3.20;;;;;;;19.94;53.05;98002.91;4800598;29;20725;-87
2022/05/10 08:41:13;;;;;;;3.90;3.33;;;;;;;19.65;53.01;97955.75;4846661;29;20276;-86
2022/05/10 08:43:51;;;;;;;4.50;3.03;;;;;;;19.57;52.89;97941.78;4814655;29;20744;-87
2022/05/10 08:46:21;;;;;;;6.33;3.13;;;;;;;19.88;52.94;97989.88;4815383;29;20260;-88
2022/05/10 08:48:50;;;;;;;3.73;2.50;;;;;;;19.90;52.79;97994.25;4815638;29;20311;-88
2022/05/10 08:51:17;;;;;;;3.10;2.80;;;;;;;19.23;52.80;97871.41;4831122;29;20640;-87
2022/05/10 08:53:44;;;;;;;3.70;2.80;;;;;;;19.60;52.65;97948.72;4815316;29;20224;-88
2022/05/10 08:56:32;;;;;;;4.23;2.60;;;;;;;19.39;52.89;97904.44;4822114;29;20212;-87
2022/05/10 08:59:04;;;;;;;4.70;3.20;;;;;;;20.06;52.84;98012.75;4837086;29;20209;-89
2022/05/10 09:02:00;;;;;;;4.27;3.17;;;;;;;19.66;52.84;97960.03;4818024;29;20208;-88
2022/05/10 09:04:46;;;;;;;3.07;2.60;;;;;;;20.07;52.88;98014.53;4822534;29;20232;-87
2022/05/10 09:07:25;;;;;;;5.60;2.83;;;;;;;19.55;52.82;97914.50;4831466;29;20204;-89
2022/05/10 09:09:55;;;;;;;4.73;3.30;;;;;;;20.07;52.73;98001.75;4842998;29;20232;-88
2022/05/10 09:12:24;;;;;;;5.93;2.90;;;;;;;19.97;52.56;98000.50;4846893;29;20633;-90
2022/05/10 09:15:00;;;;;;;3.27;2.97;;;;;;;19.56;52.73;97909.47;4830795;29;20289;-87
2022/05/10 09:17:29;;;;;;;5.70;2.80;;;;;;;19.44;52.81;97885.09;4828017;29;20203;-87
2022/05/10 09:19:56;;;;;;;4.83;3.07;;;;;;;19.23;52.85;97853.56;4828934;29;20239;-88
2022/05/10 09:22:48;;;;;;;3.40;2.60;;;;;;;20.07;53.21;97999.22;4829910;29;20215;-88
2022/05/10 09:25:34;;;;;;;4.17;2.50;;;;;;;19.69;52.66;97949.97;4829781;29;20616;-89
2022/05/10 09:28:20;;;;;;;3.73;2.60;;;;;;;19.77;52.81;97955.38;4844279;29;20239;-88
2022/05/10 09:36:43;;;;;;;4.37;2.90;;;;;;;20.06;52.84;98000.00;4845124;29;20216;-89
2022/05/10 09:39:14;;;;;;;3.33;3.03;;;;;;;19.91;52.91;97970.50;4828114;29;20236;-88
2022/05/10 09:41:43;;;;;;;3.30;3.00;;;;;;;19.21;52.93;97844.97;4829667;29;20586;-86
2022/05/10 09:44:21;;;;;;;2.73;2.53;;;;;;;19.70;52.89;97936.44;4830703;29;20243;-87
2022/05/10 09:46:48;;;;;;;4.17;3.13;;;;;;;19.43;52.81;97883.38;4830107;29;20231;-89
2022/05/10 09:49:36;;;;;;;3.17;2.87;;;;;;;19.81;52.34;97937.72;4843087;29;20247;-88
2022/05/10 09:52:03;;;;;;;5.50;2.60;;;;;;;19.37;52.94;97870.38;4844117;29;20244;-88
2022/05/10 09:54:40;;;;;;;3.03;2.80;;;;;;;19.53;52.87;97899.13;4826497;29;20351;-87
2022/05/10 09:57:09;;;;;;;3.10;2.80;;;;;;;19.55;52.90;97897.53;4831003;29;20245;-88
2022/05/10 09:59:44;;;;;;;5.30;3.20;;;;;;;19.50;52.73;97896.44;4831224;29;20661;-87
2022/05/10 10:02:11;;;;;;;4.57;2.60;;;;;;;19.41;52.89;97869.69;4823380;29;20277;-89
2022/05/10 10:04:40;;;;;;;4.97;2.60;;;;;;;19.30;52.83;97848.84;4839859;29;20223;-89
2022/05/10 10:07:08;;;;;;;3.00;2.70;;;;;;;20.06;52.96;97980.47;4830025;29;20181;-90
2022/05/10 10:09:40;;;;;;;3.97;2.43;;;;;;;19.21;52.96;97824.59;4843261;29;20211;-90
2022/05/10 10:12:31;;;;;;;2.80;2.60;;;;;;;19.21;52.67;97820.38;4830358;29;20269;-90
2022/05/10 10:14:58;;;;;;;3.40;2.80;;;;;;;19.58;52.75;97887.47;4845385;29;20232;-92
2022/05/10 10:17:31;;;;;;;3.53;2.73;;;;;;;19.68;52.74;97909.97;4844911;29;20204;-90
2022/05/10 10:20:11;;;;;;;3.40;2.60;;;;;;;20.07;52.87;97960.94;4832206;29;20196;-91
2022/05/10 10:22:43;;;;;;;4.27;2.63;;;;;;;18.18;52.85;97651.16;4848965;29;20211;-91
2022/05/10 10:25:15;;;;;;;3.90;2.70;;;;;;;20.08;52.81;97963.56;4833465;29;20205;-90
2022/05/10 10:27:50;;;;;;;5.53;3.00;;;;;;;19.25;52.78;97824.81;4847425;29;20215;-90
2022/05/10 10:30:44;;;;;;;2.50;2.30;;;;;;;19.17;52.64;97808.31;4834187;29;20188;-92
2022/05/10 10:33:39;;;;;;;4.33;2.77;;;;;;;19.19;52.90;97810.94;4836756;29;20245;-91
2022/05/10 10:36:19;;;;;;;3.97;2.70;;;;;;;19.20;52.81;97810.13;4832741;29;20214;-91
2022/05/10 10:38:58;;;;;;;2.77;2.33;;;;;;;18.80;52.69;97731.13;4850374;29;20176;-91
2022/05/10 10:41:49;;;;;;;2.70;2.50;;;;;;;20.07;53.06;97950.72;4849533;29;20385;-91
2022/05/10 10:44:40;;;;;;;2.63;2.40;;;;;;;18.52;52.79;97706.94;4862022;29;20216;-89
2022/05/10 10:47:35;;;;;;;3.00;2.77;;;;;;;20.07;52.79;97945.63;4823743;29;20199;-91
2022/05/10 10:50:31;;;;;;;3.17;2.53;;;;;;;19.06;52.65;97766.22;4847418;29;20299;-91
2022/05/10 10:53:14;;;;;;;3.27;2.50;;;;;;;18.88;52.95;97739.09;4849358;29;20200;-91
2022/05/10 10:55:44;;;;;;;3.10;2.80;;;;;;;19.63;52.74;97885.09;4849679;29;20196;-91
2022/05/10 10:58:51;;;;;;;2.90;2.60;;;;;;;20.08;52.85;97942.25;4864239;29;20256;-91
2022/05/10 11:01:47;;;;;;;2.70;2.50;;;;;;;18.91;52.75;97764.69;4863854;29;20221;-91
2022/05/10 11:04:38;;;;;;;3.20;2.70;;;;;;;20.07;52.90;97930.31;4853698;29;20203;-91
2022/05/10 11:07:19;;;;;;;3.37;2.37;;;;;;;19.85;52.73;97896.28;4830935;29;20185;-90
2022/05/10 11:10:06;;;;;;;2.57;2.37;;;;;;;17.81;52.97;97574.03;4848433;29;20208;-89
2022/05/10 11:13:04;;;;;;;2.77;2.43;;;;;;;18.49;53.03;97694.09;4852076;29;20269;-91
2022/05/10 11:19:15;;;;;;;2.67;2.47;;;;;;;19.77;52.92;97873.78;4853256;29;20208;-91
2022/05/10 11:22:42;;;;;;;2.57;2.27;;;;;;;18.78;52.51;97694.56;4851511;29;20204;-92
2022/05/10 11:25:19;;;;;;;4.80;2.47;;;;;;;19.00;52.74;97737.06;4824920;29;20196;-90
2022/05/10 11:28:12;;;;;;;2.70;2.50;;;;;;;20.06;52.92;97908.16;4848526;29;20231;-91
2022/05/10 11:30:43;;;;;;;3.17;2.60;;;;;;;18.69;52.88;97684.00;4850084;29;20227;-92
2022/05/10 11:33:19;;;;;;;3.00;2.70;;;;;;;17.63;52.95;97484.25;4837206;29;20276;-92
2022/05/10 11:36:23;;;;;;;2.70;2.50;;;;;;;18.56;52.73;97670.66;4848927;29;20225;-92
2022/05/10 11:39:20;;;;;;;2.77;2.33;;;;;;;20.06;52.93;97898.81;4832149;29;20189;-89
2022/05/10 11:41:55;;;;;;;2.60;2.40;;;;;;;19.61;52.85;97811.09;4859861;29;20205;-92
2022/05/10 11:44:59;;;;;;;3.10;2.53;;;;;;;20.07;52.98;97894.59;4848134;29;20220;-92
2022/05/10 11:50:11;;;;;;;3.13;2.50;;;;;;;20.07;52.82;97889.50;4863524;29;20250;-91
2022/05/10 11:52:47;;;;;;;2.50;2.30;;;;;;;20.07;52.95;97886.94;4843382;29;20246;-92
2022/05/10 11:55:36;;;;;;;3.37;2.73;;;;;;;18.15;52.72;97552.69;4843194;29;20204;-92
2022/05/10 11:58:06;;;;;;;2.70;2.50;;;;;;;18.44;52.81;97596.34;4815282;29;20209;-92
2022/05/10 12:00:32;;;;;;;2.60;2.40;;;;;;;20.07;53.22;97869.09;4824182;29;20206;-92
2022/05/10 12:03:09;;;;;;;2.90;2.63;;;;;;;18.90;52.83;97671.28;4826638;29;20197;-92
2022/05/10 12:05:39;;;;;;;2.67;2.47;;;;;;;19.13;53.00;97707.06;4845543;29;20237;-91
2022/05/10 12:08:15;;;;;;;2.80;2.60;;;;;;;20.07;52.91;97867.38;4816873;29;20666;-92
2022/05/10 12:10:43;;;;;;;2.77;2.50;;;;;;;18.58;52.82;97618.13;4845886;29;20210;-91
2022/05/10 12:21:19;;;;;;;2.70;2.50;;;;;;;20.07;52.90;97863.97;4831595;29;20236;-90
2022/05/10 12:22:10;;;;;;;2.60;2.40;;;;;;;18.33;52.90;97555.16;4850406;29;20221;-92
2022/05/10 12:24:43;;;;;;;2.53;2.30;;;;;;;18.39;52.79;97580.88;4844346;29;20478;-92
2022/05/10 12:27:10;;;;;;;2.43;2.23;;;;;;;20.06;52.67;97850.34;4845419;29;20200;-90
2022/05/10 12:29:40;;;;;;;3.30;3.00;;;;;;;20.07;52.88;97841.03;4861142;29;20189;-91
2022/05/10 12:32:26;;;;;;;3.00;2.43;;;;;;;17.75;53.13;97442.47;4861090;29;20271;-91
2022/05/10 12:35:32;;;;;;;3.20;2.90;;;;;;;19.31;53.00;97704.47;4850204;29;20235;-93
2022/05/10 12:38:00;;;;;;;2.57;2.37;;;;;;;18.51;53.02;97585.63;4861403;29;20275;-92
2022/05/10 12:40:34;;;;;;;2.90;2.70;;;;;;;20.08;52.48;97835.09;4831679;29;20224;-91
2022/05/10 12:43:36;;;;;;;2.60;2.40;;;;;;;20.07;52.91;97836.75;4861036;29;20196;-91
2022/05/10 12:46:25;;;;;;;3.60;2.70;;;;;;;18.41;52.48;97556.34;4846490;29;20279;-92
2022/05/10 12:49:08;;;;;;;2.80;2.60;;;;;;;20.08;52.98;97824.88;4839288;29;20207;-91
2022/05/10 12:51:41;;;;;;;2.60;2.40;;;;;;;20.07;52.95;97825.72;4861851;29;20266;-92
2022/05/10 12:54:18;;;;;;;2.53;2.33;;;;;;;18.30;53.06;97518.53;4844986;29;20224;-91
2022/05/10 12:57:21;;;;;;;2.70;2.50;;;;;;;19.26;52.83;97699.16;4846092;29;20237;-91
2022/05/10 12:59:56;;;;;;;2.50;2.30;;;;;;;20.06;52.92;97816.28;4811237;29;20248;-92
2022/05/10 13:02:23;;;;;;;2.53;2.33;;;;;;;19.61;52.83;97741.38;4831190;29;20184;-91
2022/05/10 13:04:55;;;;;;;2.60;2.40;;;;;;;19.36;53.03;97725.94;4841321;29;20720;-93
2022/05/10 13:07:50;;;;;;;2.60;2.40;;;;;;;20.07;52.90;97812.97;4863284;29;20473;-92
2022/05/10 13:10:20;;;;;;;2.33;2.20;;;;;;;19.45;52.99;97744.97;4880286;29;20233;-92
2022/05/10 13:12:51;;;;;;;2.70;2.30;;;;;;;18.58;52.97;97570.66;4849523;29;20240;-92
2022/05/10 13:15:22;;;;;;;3.63;2.50;;;;;;;18.18;52.84;97496.00;4849939;29;20212;-91
2022/05/10 13:17:52;;;;;;;3.83;2.30;;;;;;;18.16;52.67;97479.81;4835422;29;20242;-92
2022/05/10 13:20:23;;;;;;;2.80;2.50;;;;;;;18.60;53.25;97532.53;4843227;29;20572;-91
2022/05/10 13:23:03;;;;;;;2.40;2.20;;;;;;;17.72;52.52;97403.34;4843184;29;20234;-91
2022/05/10 13:25:39;;;;;;;3.67;2.43;;;;;;;18.36;52.98;97498.44;4843739;29;20209;-93
2022/05/10 13:28:23;;;;;;;3.27;2.50;;;;;;;18.19;52.74;97451.94;4812441;29;20254;-93
2022/05/10 13:30:57;;;;;;;2.80;2.60;;;;;;;19.07;52.95;97611.72;4812837;29;20246;-92
2022/05/10 13:33:31;;;;;;;2.50;2.30;;;;;;;18.12;52.79;97449.97;4812939;29;20216;-93
2022/05/10 13:36:01;;;;;;;2.40;2.20;;;;;;;18.20;52.81;97476.56;4828655;29;20243;-93
2022/05/10 13:38:34;;;;;;;2.47;2.30;;;;;;;18.05;53.13;97427.63;4813969;29;20514;-91